CheckWX is a tool to help pilots better visualize weather data.  It is not intended as a substitute for an official pre-flight weather briefing.

20:37:56 UTC

KACK TAF
Nantucket Memorial Airport
Nantucket, Massachusetts, USA
KACK 032335Z 0400/0424 23010G18KT 3SM BR OVC040 FM040500 25010G17KT 3SM BR BKN007 FM040900 26008KT 1SM BR OVC006 FM041200 25007KT 5SM BR BKN006 FM041300 25009KT P6SM BKN045 FM041800 22010KT P6SM BKN200

Jun-4@
00:00 UTC

Jun-4 @ 00:00 UTC

Jun-4@
05:00 UTC

Jun-4 @ 05:00 UTC

TAF KACK 032335Z 0400/0424 23010G18KT 3SM BR OVC040

Expired

Wind
  • 230° at 10 KTS
  • {Gusting to 18 KTS
Conditions
Mist
Cloud Levels
  • Overcast at 4,000' AGL

Jun-4@
05:00 UTC

Jun-4 @ 05:00 UTC

Jun-4@
09:00 UTC

Jun-4 @ 09:00 UTC

FM040500 25010G17KT 3SM BR BKN007

Expired

Wind
  • 250° at 10 KTS
  • {Gusting to 17 KTS
Conditions
Mist
Cloud Levels
  • Broken at 700' AGL

Jun-4@
09:00 UTC

Jun-4 @ 09:00 UTC

Jun-4@
12:00 UTC

Jun-4 @ 12:00 UTC

FM040900 26008KT 1SM BR OVC006

Expired

Wind
  • 260° at 8 KTS
Conditions
Mist
Cloud Levels
  • Overcast at 600' AGL

Jun-4@
12:00 UTC

Jun-4 @ 12:00 UTC

Jun-4@
13:00 UTC

Jun-4 @ 13:00 UTC

FM041200 25007KT 5SM BR BKN006

Expired

Wind
  • 250° at 7 KTS
Conditions
Mist
Cloud Levels
  • Broken at 600' AGL

Jun-4@
13:00 UTC

Jun-4 @ 13:00 UTC

Jun-4@
18:00 UTC

Jun-4 @ 18:00 UTC

FM041300 25009KT P6SM BKN045

Expired

Wind
  • 250° at 9 KTS
Cloud Levels
  • Broken at 4,500' AGL

Jun-4@
18:00 UTC

Jun-4 @ 18:00 UTC

Jun-5@
00:00 UTC

Jun-5 @ 00:00 UTC

FM041800 22010KT P6SM BKN200

From

From Standard forecast or significant change

Wind
  • 220° at 10 KTS
Cloud Levels
  • Broken at 20,000' AGL